Time;durP1;ratioP1;P1;durP2;ratioP2;P2;SDS_P1;SDS_P2;PMS_P1;PMS_P2;Temp;Humidity;BMP_temperature;BMP_pressure;BME280_temperature;BME280_humidity;BME280_pressure;Samples;Min_cycle;Max_cycle;Signal;HPM_P1;HPM_P2
2022/04/11 00:02:06;;;;;;;5.67;4.80;;;;;;;-2.12;100.00;97477.19;5032844;28;20321;-56
2022/04/11 00:04:35;;;;;;;6.13;4.47;;;;;;;-2.13;100.00;97465.94;5023247;28;20239;-57
2022/04/11 00:07:03;;;;;;;4.20;4.00;;;;;;;-2.23;100.00;97472.66;5016059;28;20235;-58
2022/04/11 00:09:31;;;;;;;5.57;4.10;;;;;;;-2.30;100.00;97453.22;4989632;28;20621;-56
2022/04/11 00:12:01;;;;;;;7.30;4.93;;;;;;;-2.27;100.00;97466.84;5027321;28;20314;-58
2022/04/11 00:14:29;;;;;;;4.27;3.93;;;;;;;-2.28;100.00;97464.34;5027286;28;20322;-56
2022/04/11 00:16:57;;;;;;;4.20;3.90;;;;;;;-2.35;100.00;97466.47;5027761;28;20210;-58
2022/04/11 00:19:25;;;;;;;6.10;4.60;;;;;;;-2.40;100.00;97460.75;5029055;28;20307;-57
2022/04/11 00:21:53;;;;;;;4.43;4.03;;;;;;;-2.36;100.00;97467.41;5006368;28;20529;-60
2022/04/11 00:24:21;;;;;;;4.03;3.83;;;;;;;-2.33;100.00;97459.41;4992570;28;20693;-59
2022/04/11 00:26:50;;;;;;;4.97;4.57;;;;;;;-2.38;100.00;97451.94;5023234;28;20515;-60
2022/04/11 00:29:19;;;;;;;5.40;4.93;;;;;;;-2.45;100.00;97455.84;5026156;28;20644;-57
2022/04/11 00:31:47;;;;;;;5.13;4.77;;;;;;;-2.61;100.00;97458.56;5027115;28;20334;-58
2022/04/11 00:34:15;;;;;;;5.60;5.20;;;;;;;-2.73;100.00;97456.69;5030220;28;20258;-56
2022/04/11 00:36:43;;;;;;;4.87;4.57;;;;;;;-2.80;100.00;97461.44;5024654;28;20211;-54
2022/04/11 00:39:12;;;;;;;5.70;5.07;;;;;;;-2.89;100.00;97456.78;5018475;28;20214;-57
2022/04/11 00:41:40;;;;;;;4.83;4.43;;;;;;;-2.99;100.00;97451.34;4964395;28;20709;-53
2022/04/11 00:44:08;;;;;;;7.57;5.40;;;;;;;-3.00;100.00;97455.69;5029663;28;20219;-57
2022/04/11 00:46:38;;;;;;;5.93;4.70;;;;;;;-2.97;100.00;97459.88;5027085;28;20199;-55
2022/04/11 00:49:06;;;;;;;5.23;4.83;;;;;;;-2.80;100.00;97454.50;5028690;28;20214;-59
2022/04/11 00:51:34;;;;;;;4.57;4.20;;;;;;;-2.80;100.00;97469.22;5027194;28;20302;-54
2022/04/11 00:54:03;;;;;;;4.30;4.00;;;;;;;-2.78;100.00;97459.59;5011440;28;20560;-58
2022/04/11 00:56:31;;;;;;;4.93;4.57;;;;;;;-2.86;100.00;97461.78;4982005;28;20246;-53
2022/04/11 00:59:01;;;;;;;4.87;4.47;;;;;;;-2.83;100.00;97462.47;5027677;28;20207;-58
2022/04/11 01:01:30;;;;;;;4.93;4.47;;;;;;;-2.73;100.00;97456.69;5023882;28;21027;-54
2022/04/11 01:04:00;;;;;;;8.37;5.53;;;;;;;-2.77;100.00;97464.66;5016178;28;20313;-60
2022/04/11 01:06:28;;;;;;;6.90;5.40;;;;;;;-2.89;100.00;97467.16;5025461;28;20208;-52
2022/04/11 01:08:56;;;;;;;6.47;5.50;;;;;;;-2.97;100.00;97467.66;5004658;28;20335;-57
2022/04/11 01:11:24;;;;;;;5.20;4.73;;;;;;;-3.05;100.00;97466.31;4966055;28;21393;-59
2022/04/11 01:13:53;;;;;;;4.60;4.20;;;;;;;-3.13;100.00;97462.53;5027699;28;20203;-54
2022/04/11 01:16:28;;;;;;;6.00;5.40;;;;;;;-3.23;100.00;97467.44;5025444;28;20449;-58
2022/04/11 01:18:56;;;;;;;7.20;5.90;;;;;;;-3.20;100.00;97467.25;5028607;28;20966;-55
2022/04/11 01:21:30;;;;;;;6.83;6.00;;;;;;;-3.21;100.00;97471.63;5023178;28;20749;-58
2022/04/11 01:23:59;;;;;;;5.87;5.47;;;;;;;-3.20;100.00;97464.66;5010647;28;20242;-52
2022/04/11 01:26:27;;;;;;;6.27;5.67;;;;;;;-3.25;100.00;97467.50;5010283;28;20302;-58
2022/04/11 01:28:56;;;;;;;5.40;4.90;;;;;;;-3.26;100.00;97476.22;4979121;28;20548;-52
2022/04/11 01:31:25;;;;;;;6.80;6.10;;;;;;;-3.35;100.00;97471.56;5026649;28;20196;-58
2022/04/11 01:33:53;;;;;;;6.57;5.97;;;;;;;-3.40;100.00;97466.69;5030113;28;20200;-54
2022/04/11 01:36:21;;;;;;;6.20;5.60;;;;;;;-3.40;100.00;97468.44;5027907;28;20717;-57
2022/04/11 01:38:51;;;;;;;5.93;5.30;;;;;;;-3.42;100.00;97471.09;5004624;28;20199;-58
2022/04/11 01:41:20;;;;;;;5.73;5.23;;;;;;;-3.40;100.00;97471.88;5008446;28;20403;-57
2022/04/11 01:43:49;;;;;;;5.90;5.03;;;;;;;-3.38;100.00;97467.44;4979644;28;20603;-56
2022/04/11 01:46:17;;;;;;;6.10;5.37;;;;;;;-3.38;100.00;97463.97;5018842;28;20496;-57
2022/04/11 01:48:45;;;;;;;5.83;5.33;;;;;;;-3.43;100.00;97464.25;5028325;28;20344;-56
2022/04/11 01:51:14;;;;;;;5.57;5.07;;;;;;;-3.53;100.00;97461.38;5025097;28;20546;-54
2022/04/11 01:53:42;;;;;;;5.87;5.23;;;;;;;-3.58;100.00;97465.13;5029735;28;20570;-58
2022/04/11 01:56:11;;;;;;;5.80;4.53;;;;;;;-3.60;100.00;97460.03;4992882;28;20212;-53
2022/04/11 01:58:40;;;;;;;5.10;4.57;;;;;;;-3.57;100.00;97467.66;4978829;28;20471;-56
2022/04/11 02:01:08;;;;;;;5.10;4.80;;;;;;;-3.61;100.00;97460.97;5023161;28;21083;-53
2022/04/11 02:03:36;;;;;;;5.23;4.83;;;;;;;-3.70;100.00;97456.31;5026180;28;20224;-59
2022/04/11 02:06:04;;;;;;;7.20;5.17;;;;;;;-3.63;100.00;97462.81;5025184;28;20303;-54
2022/04/11 02:08:33;;;;;;;5.30;4.90;;;;;;;-3.39;100.00;97464.91;5026870;28;20758;-59
2022/04/11 02:11:01;;;;;;;6.30;5.77;;;;;;;-3.42;100.00;97465.09;5007107;28;20208;-51
2022/04/11 02:13:30;;;;;;;5.70;5.23;;;;;;;-3.32;100.00;97461.03;4967044;28;21780;-61
2022/04/11 02:15:59;;;;;;;5.37;4.87;;;;;;;-3.42;100.00;97455.53;5024861;28;20200;-56
2022/04/11 02:18:28;;;;;;;6.73;5.47;;;;;;;-3.37;100.00;97461.31;5026057;28;20402;-60
2022/04/11 02:20:56;;;;;;;6.40;5.77;;;;;;;-3.46;100.00;97458.41;5022867;28;20752;-57
2022/04/11 02:23:24;;;;;;;5.97;5.47;;;;;;;-3.51;100.00;97453.50;5021921;28;20278;-58
2022/04/11 02:25:53;;;;;;;5.77;5.37;;;;;;;-3.53;100.00;97455.34;5010022;28;20583;-56
2022/04/11 02:28:21;;;;;;;6.10;5.57;;;;;;;-3.52;100.00;97455.28;4965096;28;20736;-58
2022/04/11 02:30:51;;;;;;;6.07;5.50;;;;;;;-3.45;100.00;97450.53;5026397;28;20228;-59
2022/04/11 02:33:19;;;;;;;7.30;5.33;;;;;;;-3.53;100.00;97453.59;5018297;28;20259;-54
2022/04/11 02:35:47;;;;;;;6.90;6.27;;;;;;;-3.56;100.00;97448.59;5024713;28;20314;-58
2022/04/11 02:38:16;;;;;;;5.37;4.97;;;;;;;-3.67;100.00;97446.63;4984352;28;20461;-52
2022/04/11 02:40:46;;;;;;;5.63;5.17;;;;;;;-3.71;100.00;97449.47;5023167;28;21316;-58
2022/04/11 02:43:14;;;;;;;5.23;4.90;;;;;;;-3.76;100.00;97448.91;5003687;28;20719;-55
2022/04/11 02:45:42;;;;;;;5.27;4.87;;;;;;;-3.80;100.00;97449.06;4977470;28;20219;-55
2022/04/11 02:48:11;;;;;;;8.07;5.13;;;;;;;-3.89;100.00;97449.59;5019640;28;20467;-55
2022/04/11 02:50:40;;;;;;;5.40;4.90;;;;;;;-3.93;100.00;97446.34;5028195;28;20227;-56
2022/04/11 02:53:08;;;;;;;5.17;4.70;;;;;;;-4.02;100.00;97436.53;5016172;28;20231;-56
2022/04/11 02:55:36;;;;;;;4.97;4.57;;;;;;;-3.99;100.00;97441.53;5022605;28;20203;-59
2022/04/11 02:58:04;;;;;;;6.00;5.30;;;;;;;-3.97;100.00;97439.69;5007466;28;20212;-56
2022/04/11 03:00:32;;;;;;;6.27;5.73;;;;;;;-3.99;100.00;97438.94;4976564;28;20609;-58
2022/04/11 03:03:00;;;;;;;5.10;4.63;;;;;;;-4.02;100.00;97431.34;5020996;28;20239;-53
2022/04/11 03:05:30;;;;;;;5.67;5.27;;;;;;;-3.98;100.00;97437.16;5023252;28;20692;-59
2022/04/11 03:07:58;;;;;;;7.10;6.40;;;;;;;-3.94;100.00;97439.50;5025431;28;20294;-54
2022/04/11 03:10:26;;;;;;;5.83;5.00;;;;;;;-3.94;100.00;97433.50;5023017;28;20203;-54
2022/04/11 03:12:54;;;;;;;5.27;4.77;;;;;;;-3.94;100.00;97430.91;4974031;28;20231;-57
2022/04/11 03:15:22;;;;;;;5.43;5.00;;;;;;;-3.98;100.00;97437.16;4956130;28;20211;-57
2022/04/11 03:17:51;;;;;;;6.13;5.67;;;;;;;-3.97;100.00;97444.84;5021268;28;20208;-54
2022/04/11 03:20:19;;;;;;;5.43;5.03;;;;;;;-3.98;100.00;97445.78;5025799;28;20235;-57
2022/04/11 03:22:48;;;;;;;5.25;4.72;;;;;;;-3.98;100.00;97438.00;5022891;28;20489;-54
2022/04/11 03:25:17;;;;;;;4.93;4.53;;;;;;;-4.00;100.00;97441.59;5020923;28;20238;-59
2022/04/11 03:27:45;;;;;;;5.30;4.90;;;;;;;-4.09;100.00;97427.44;5013048;28;20294;-57
2022/04/11 03:30:14;;;;;;;5.53;5.00;;;;;;;-4.03;100.00;97434.00;5000139;28;20524;-57
2022/04/11 03:32:42;;;;;;;5.03;4.53;;;;;;;-4.04;100.00;97435.78;4974714;28;20806;-52
2022/04/11 03:35:10;;;;;;;5.33;4.87;;;;;;;-4.07;100.00;97429.00;5026574;28;20407;-59
2022/04/11 03:37:38;;;;;;;5.43;5.03;;;;;;;-4.04;100.00;97437.50;5027276;28;20379;-53
2022/04/11 03:40:10;;;;;;;5.57;4.97;;;;;;;-4.12;100.00;97438.78;5030604;28;20422;-58
2022/04/11 03:42:38;;;;;;;5.57;5.07;;;;;;;-4.14;100.00;97443.22;5029401;28;20854;-53
2022/04/11 03:45:10;;;;;;;5.83;5.10;;;;;;;-4.18;100.00;97435.69;5011571;28;20511;-55
2022/04/11 03:47:38;;;;;;;7.03;4.57;;;;;;;-4.13;100.00;97442.28;4972538;28;20215;-54
2022/04/11 03:50:07;;;;;;;5.80;5.30;;;;;;;-4.10;100.00;97436.94;5005047;28;20247;-56
2022/04/11 03:52:35;;;;;;;4.50;4.20;;;;;;;-4.12;100.00;97433.59;5030339;28;20890;-52
2022/04/11 03:55:04;;;;;;;5.77;5.17;;;;;;;-4.19;100.00;97434.03;5027390;28;20413;-52
2022/04/11 03:57:34;;;;;;;5.97;5.47;;;;;;;-4.23;100.00;97439.38;5031110;28;20203;-57
2022/04/11 04:00:02;;;;;;;6.17;5.50;;;;;;;-4.22;100.00;97428.09;5007930;28;20325;-57
2022/04/11 04:02:30;;;;;;;5.33;4.93;;;;;;;-4.24;100.00;97429.13;4995097;28;20233;-60
2022/04/11 04:04:58;;;;;;;5.33;4.93;;;;;;;-4.26;100.00;97430.97;4978992;28;20240;-59
2022/04/11 04:07:26;;;;;;;7.33;5.07;;;;;;;-4.25;100.00;97430.03;5024945;28;20842;-58
2022/04/11 04:09:54;;;;;;;7.10;5.83;;;;;;;-4.30;100.00;97426.88;5024274;28;20204;-59
2022/04/11 04:12:23;;;;;;;6.07;5.50;;;;;;;-4.22;100.00;97427.28;5027151;28;20335;-57
2022/04/11 04:14:52;;;;;;;5.87;5.37;;;;;;;-4.24;100.00;97423.94;5006113;28;20591;-55
2022/04/11 04:17:20;;;;;;;7.63;5.90;;;;;;;-4.12;100.00;97427.63;5026505;28;20228;-56
2022/04/11 04:19:49;;;;;;;5.00;4.60;;;;;;;-4.10;100.00;97425.78;4992524;28;20461;-54
2022/04/11 04:22:17;;;;;;;5.93;5.43;;;;;;;-4.14;100.00;97425.09;5026888;28;20229;-57
2022/04/11 04:24:45;;;;;;;5.73;5.23;;;;;;;-4.12;100.00;97418.06;5027725;28;20250;-53
2022/04/11 04:27:13;;;;;;;5.93;5.53;;;;;;;-4.06;100.00;97416.91;5027759;28;20238;-53
2022/04/11 04:29:42;;;;;;;5.73;5.23;;;;;;;-4.08;100.00;97416.97;5024345;28;20292;-53
2022/04/11 04:32:11;;;;;;;5.57;5.07;;;;;;;-4.04;100.00;97417.66;5023375;28;20227;-58
2022/04/11 04:34:41;;;;;;;6.47;5.47;;;;;;;-4.03;100.00;97419.31;4969278;28;20215;-58
2022/04/11 04:37:09;;;;;;;6.03;5.43;;;;;;;-4.02;100.00;97417.56;5028144;28;20208;-57
2022/04/11 04:39:37;;;;;;;4.87;4.57;;;;;;;-4.07;100.00;97421.22;5009587;28;21505;-53
2022/04/11 04:42:07;;;;;;;6.60;5.80;;;;;;;-4.02;100.00;97423.56;5033631;28;20592;-51
2022/04/11 04:44:35;;;;;;;6.47;5.50;;;;;;;-3.98;100.00;97422.47;5039284;28;20558;-58
2022/04/11 04:47:03;;;;;;;6.03;5.50;;;;;;;-3.93;100.00;97419.63;5021440;28;21113;-59
2022/04/11 04:49:33;;;;;;;5.77;5.37;;;;;;;-3.92;100.00;97413.53;4991061;28;20469;-55
2022/04/11 04:52:02;;;;;;;5.40;4.93;;;;;;;-3.83;100.00;97420.78;5025521;28;20576;-59
2022/04/11 04:54:30;;;;;;;8.23;5.67;;;;;;;-3.73;100.00;97413.31;5026996;28;20203;-57
2022/04/11 04:56:59;;;;;;;5.67;5.17;;;;;;;-3.65;100.00;97411.09;5027139;28;20247;-57
2022/04/11 04:59:27;;;;;;;5.97;5.57;;;;;;;-3.59;100.00;97412.53;5024741;28;21261;-59
2022/04/11 05:01:55;;;;;;;5.90;5.43;;;;;;;-3.49;100.00;97405.88;5006322;28;20232;-54
2022/04/11 05:04:24;;;;;;;7.57;5.87;;;;;;;-3.35;100.00;97411.97;4973836;28;20266;-52
2022/04/11 05:06:53;;;;;;;5.80;5.30;;;;;;;-3.21;100.00;97412.00;5027341;28;20204;-57
2022/04/11 05:09:21;;;;;;;5.37;4.93;;;;;;;-3.02;100.00;97404.88;5026297;28;20697;-55
2022/04/11 05:11:49;;;;;;;5.73;5.23;;;;;;;-2.89;100.00;97404.94;5027078;28;20683;-58
2022/04/11 05:14:22;;;;;;;6.03;5.53;;;;;;;-2.78;100.00;97403.34;4976920;28;20216;-50
2022/04/11 05:16:50;;;;;;;5.43;5.03;;;;;;;-2.58;100.00;97403.03;5027763;28;20482;-56
2022/04/11 05:19:18;;;;;;;6.20;5.13;;;;;;;-2.36;100.00;97407.72;5007011;28;20465;-51
2022/04/11 05:21:46;;;;;;;6.10;5.60;;;;;;;-2.25;100.00;97407.88;4993527;28;20512;-57
2022/04/11 05:24:15;;;;;;;5.53;5.13;;;;;;;-2.02;100.00;97409.94;5026190;28;20215;-56
2022/04/11 05:26:44;;;;;;;6.40;5.90;;;;;;;-1.86;100.00;97396.78;5028453;28;20219;-54
2022/04/11 05:29:12;;;;;;;7.30;6.70;;;;;;;-1.69;100.00;97399.06;5027921;28;21584;-53
2022/04/11 05:31:40;;;;;;;7.17;6.57;;;;;;;-1.47;100.00;97397.66;5026361;28;20458;-57
2022/04/11 05:34:08;;;;;;;6.13;5.57;;;;;;;-1.36;100.00;97402.09;5006233;28;20248;-51
2022/04/11 05:36:36;;;;;;;7.77;5.90;;;;;;;-1.29;100.00;97397.34;4978075;28;20550;-56
2022/04/11 05:39:04;;;;;;;5.67;5.27;;;;;;;-1.21;100.00;97400.25;5028184;28;20759;-53
2022/04/11 05:41:34;;;;;;;6.40;5.77;;;;;;;-1.07;100.00;97397.53;5023592;28;20529;-55
2022/04/11 05:44:02;;;;;;;6.13;5.67;;;;;;;-0.89;100.00;97397.19;5022875;28;20439;-52
2022/04/11 05:46:30;;;;;;;6.17;5.67;;;;;;;-0.77;100.00;97393.72;5001340;28;20948;-57
2022/04/11 05:48:58;;;;;;;6.23;4.90;;;;;;;-0.42;100.00;97401.75;5021175;28;20231;-51
2022/04/11 05:51:27;;;;;;;4.63;4.33;;;;;;;-0.24;100.00;97407.41;4967344;28;21600;-58
2022/04/11 05:53:55;;;;;;;5.47;5.00;;;;;;;-0.39;100.00;97402.38;5023622;28;20203;-52
2022/04/11 05:56:24;;;;;;;5.67;5.17;;;;;;;-0.33;100.00;97404.53;5025571;28;20357;-56
2022/04/11 05:58:53;;;;;;;5.13;4.83;;;;;;;-0.34;100.00;97395.06;5029390;28;20200;-53
2022/04/11 06:01:21;;;;;;;6.10;5.60;;;;;;;-0.10;100.00;97404.66;5024287;28;20829;-57
2022/04/11 06:03:49;;;;;;;5.73;5.23;;;;;;;0.03;100.00;97406.38;5029235;28;20714;-55
2022/04/11 06:06:18;;;;;;;4.77;4.10;;;;;;;0.05;100.00;97405.34;4954755;28;20900;-52
2022/04/11 06:08:46;;;;;;;7.13;4.40;;;;;;;0.20;100.00;97400.78;5026901;28;20298;-57
2022/04/11 06:11:14;;;;;;;4.67;4.37;;;;;;;0.11;100.00;97401.44;5023377;28;20395;-53
2022/04/11 06:13:45;;;;;;;4.73;4.33;;;;;;;0.30;100.00;97407.91;5026185;28;20535;-56
2022/04/11 06:16:15;;;;;;;7.63;4.77;;;;;;;0.56;100.00;97408.56;5023247;28;20977;-57
2022/04/11 06:18:43;;;;;;;5.63;4.87;;;;;;;0.79;100.00;97406.00;5026164;28;20303;-53
2022/04/11 06:21:11;;;;;;;5.53;5.10;;;;;;;0.92;100.00;97408.47;4999661;28;20238;-54
2022/04/11 06:23:39;;;;;;;4.87;4.57;;;;;;;0.96;100.00;97415.97;4979474;28;20483;-58
2022/04/11 06:26:07;;;;;;;4.37;4.00;;;;;;;1.05;100.00;97406.59;5022358;28;20242;-54
2022/04/11 06:28:36;;;;;;;5.68;5.05;;;;;;;1.07;100.00;97407.31;5026342;28;20466;-57
2022/04/11 06:31:04;;;;;;;4.87;4.47;;;;;;;1.29;100.00;97403.03;5025284;28;20206;-52
2022/04/11 06:33:33;;;;;;;5.23;4.73;;;;;;;1.65;100.00;97400.25;5023137;28;20234;-55
2022/04/11 06:36:01;;;;;;;5.20;4.70;;;;;;;2.12;100.00;97413.06;5001473;28;20214;-50
2022/04/11 06:38:30;;;;;;;5.07;4.67;;;;;;;2.48;100.00;97404.91;4992515;28;20829;-54
2022/04/11 06:40:58;;;;;;;4.40;4.17;;;;;;;3.35;100.00;97403.72;5023429;28;20243;-53
2022/04/11 06:43:26;;;;;;;5.53;5.10;;;;;;;3.82;100.00;97397.06;5024798;28;20938;-56
2022/04/11 06:45:54;;;;;;;5.37;4.87;;;;;;;3.81;100.00;97404.09;5023526;28;20227;-55
2022/04/11 06:48:23;;;;;;;5.03;4.40;;;;;;;4.83;100.00;97412.47;5025935;28;20933;-58
2022/04/11 06:50:53;;;;;;;4.10;3.90;;;;;;;5.48;100.00;97416.94;5015499;28;20203;-56
2022/04/11 06:53:21;;;;;;;4.57;4.27;;;;;;;6.60;100.00;97421.19;4992854;28;20458;-58
2022/04/11 06:55:49;;;;;;;5.10;4.60;;;;;;;7.20;100.00;97423.06;5029172;28;20196;-55
2022/04/11 06:58:18;;;;;;;5.77;4.13;;;;;;;6.98;100.00;97418.31;5020556;28;20950;-57
2022/04/11 07:00:46;;;;;;;4.47;4.17;;;;;;;5.49;100.00;97413.34;5022917;28;20199;-55
2022/04/11 07:03:14;;;;;;;4.20;3.90;;;;;;;5.05;100.00;97410.47;5026122;28;20318;-56
2022/04/11 07:05:43;;;;;;;4.50;4.20;;;;;;;4.41;100.00;97423.31;5016537;28;20229;-56
2022/04/11 07:08:12;;;;;;;4.30;4.00;;;;;;;4.43;100.00;97421.38;5027756;28;20203;-57
2022/04/11 07:10:40;;;;;;;3.80;3.60;;;;;;;4.08;100.00;97425.38;4987295;28;20302;-59
2022/04/11 07:13:09;;;;;;;4.60;4.27;;;;;;;4.08;100.00;97423.56;5025859;28;20230;-58
2022/04/11 07:15:37;;;;;;;5.40;4.20;;;;;;;4.05;100.00;97429.94;5032723;28;20207;-55
2022/04/11 07:18:06;;;;;;;6.47;3.83;;;;;;;3.99;100.00;97430.50;5030147;28;20325;-53
2022/04/11 07:20:34;;;;;;;4.27;3.97;;;;;;;3.79;100.00;97441.88;5034461;28;20284;-59
2022/04/11 07:23:02;;;;;;;3.87;3.67;;;;;;;3.57;100.00;97435.88;5017995;28;20590;-54
2022/04/11 07:25:31;;;;;;;3.90;3.50;;;;;;;3.63;100.00;97438.00;4986547;28;24958;-58
2022/04/11 07:28:00;;;;;;;4.60;4.30;;;;;;;3.57;100.00;97430.66;5030799;28;20404;-56
2022/04/11 07:30:28;;;;;;;4.40;4.10;;;;;;;3.49;100.00;97441.81;5026103;28;20470;-60
2022/04/11 07:32:56;;;;;;;6.87;4.00;;;;;;;3.82;100.00;97431.13;5030420;28;20219;-56
2022/04/11 07:35:24;;;;;;;4.27;3.97;;;;;;;3.79;100.00;97447.97;5028850;28;20412;-58
2022/04/11 07:37:52;;;;;;;5.47;4.10;;;;;;;3.89;100.00;97440.09;5011888;28;20208;-55
2022/04/11 07:40:21;;;;;;;6.80;3.70;;;;;;;4.10;100.00;97441.81;4984722;28;21967;-58
2022/04/11 07:42:51;;;;;;;4.27;3.87;;;;;;;4.28;100.00;97442.78;5006629;28;20306;-55
2022/04/11 07:45:20;;;;;;;4.10;3.80;;;;;;;4.21;100.00;97449.53;5029036;28;20249;-52
2022/04/11 07:47:53;;;;;;;3.73;3.53;;;;;;;4.43;100.00;97445.00;5013292;28;20224;-53
2022/04/11 07:50:22;;;;;;;4.60;4.20;;;;;;;4.99;100.00;97447.81;5028308;28;20291;-58
2022/04/11 07:52:50;;;;;;;5.10;4.20;;;;;;;5.05;100.00;97445.47;5030612;28;20262;-56
2022/04/11 07:55:21;;;;;;;4.37;4.07;;;;;;;5.24;100.00;97441.09;5015426;28;20208;-59
2022/04/11 07:57:51;;;;;;;4.77;4.30;;;;;;;5.55;100.00;97437.41;4995074;28;20299;-54
2022/04/11 08:00:22;;;;;;;4.30;3.90;;;;;;;5.62;100.00;97444.53;5029661;28;20207;-57
2022/04/11 08:02:53;;;;;;;4.23;3.83;;;;;;;5.50;100.00;97438.66;5013870;28;20302;-55
2022/04/11 08:05:22;;;;;;;5.57;4.43;;;;;;;5.87;100.00;97431.69;5029490;28;20207;-56
2022/04/11 08:07:51;;;;;;;6.00;4.33;;;;;;;5.56;100.00;97423.28;5022274;28;20315;-53
2022/04/11 08:10:21;;;;;;;4.63;4.30;;;;;;;5.71;100.00;97428.88;5020452;28;20545;-58
2022/04/11 08:12:56;;;;;;;4.37;3.93;;;;;;;5.89;100.00;97428.91;4982563;28;20242;-57
2022/04/11 08:15:25;;;;;;;4.33;3.63;;;;;;;6.00;100.00;97419.97;5025950;28;20204;-55
2022/04/11 08:17:54;;;;;;;4.73;4.13;;;;;;;6.23;100.00;97421.22;5028083;28;20250;-56
2022/04/11 08:20:23;;;;;;;4.50;4.10;;;;;;;6.44;100.00;97421.88;5031020;28;20751;-54
2022/04/11 08:22:52;;;;;;;6.50;3.83;;;;;;;6.30;100.00;97421.44;5027430;28;20223;-56
2022/04/11 08:25:20;;;;;;;4.37;4.07;;;;;;;6.36;100.00;97417.38;5014709;28;20294;-57
2022/04/11 08:27:49;;;;;;;4.83;4.40;;;;;;;6.43;100.00;97418.41;4986540;28;20227;-53
2022/04/11 08:30:18;;;;;;;5.00;4.60;;;;;;;6.79;100.00;97420.19;5029226;28;20438;-55
2022/04/11 08:32:48;;;;;;;5.33;4.63;;;;;;;6.68;100.00;97415.16;5029258;28;20223;-51
2022/04/11 08:35:19;;;;;;;4.60;3.73;;;;;;;6.99;100.00;97418.16;5027248;28;20311;-56
2022/04/11 08:37:47;;;;;;;4.63;3.87;;;;;;;7.11;100.00;97429.28;5030397;28;20239;-52
2022/04/11 08:40:18;;;;;;;4.67;4.20;;;;;;;7.45;100.00;97415.28;5012990;28;20511;-55
2022/04/11 08:42:51;;;;;;;4.43;4.03;;;;;;;7.43;100.00;97408.50;5026380;28;20285;-55
2022/04/11 08:45:22;;;;;;;6.90;6.03;;;;;;;7.38;100.00;97412.44;5001153;28;20811;-55
2022/04/11 08:47:53;;;;;;;8.50;7.70;;;;;;;7.52;100.00;97418.94;5024344;28;20319;-52
2022/04/11 08:50:22;;;;;;;5.40;5.00;;;;;;;7.19;100.00;97418.78;5014777;28;20204;-53
2022/04/11 08:52:51;;;;;;;4.67;4.37;;;;;;;7.37;100.00;97412.59;5018692;28;20321;-58
2022/04/11 08:55:19;;;;;;;4.50;4.20;;;;;;;7.60;100.00;97394.41;5011112;28;20222;-56
2022/04/11 08:57:48;;;;;;;4.67;4.27;;;;;;;7.59;100.00;97400.66;5016473;28;20313;-56
2022/04/11 09:00:18;;;;;;;4.57;4.27;;;;;;;7.60;100.00;97396.22;4987228;28;20237;-55
2022/04/11 09:02:48;;;;;;;5.20;4.53;;;;;;;7.64;100.00;97403.66;5029723;28;20792;-60
2022/04/11 09:05:20;;;;;;;5.07;4.77;;;;;;;7.84;100.00;97400.72;5020034;28;20253;-55
2022/04/11 09:07:50;;;;;;;6.03;4.90;;;;;;;7.70;100.00;97390.81;5015055;28;21023;-60
2022/04/11 09:10:20;;;;;;;5.33;4.93;;;;;;;7.96;100.00;97390.69;5029524;28;20614;-58
2022/04/11 09:12:49;;;;;;;4.60;4.20;;;;;;;8.05;100.00;97383.63;5001578;28;20235;-60
2022/04/11 09:15:18;;;;;;;4.40;3.80;;;;;;;8.15;100.00;97389.56;4989798;28;21048;-58
2022/04/11 09:17:48;;;;;;;5.33;4.83;;;;;;;8.19;100.00;97384.81;5022831;28;20977;-58
2022/04/11 09:20:18;;;;;;;6.40;4.87;;;;;;;8.24;100.00;97382.50;5029504;28;20663;-56
2022/04/11 09:22:47;;;;;;;5.73;4.87;;;;;;;8.20;100.00;97376.72;5028980;28;20226;-57
2022/04/11 09:25:16;;;;;;;4.60;4.20;;;;;;;7.94;100.00;97369.75;5018263;28;20271;-58
2022/04/11 09:27:45;;;;;;;5.60;5.10;;;;;;;8.36;100.00;97364.50;4994654;28;20447;-58
2022/04/11 09:30:23;;;;;;;6.32;5.82;;;;;;;8.36;100.00;97367.97;5015456;28;21065;-56
2022/04/11 09:33:01;;;;;;;4.97;4.57;;;;;;;8.33;100.00;97364.81;5028692;28;20239;-59
2022/04/11 09:35:31;;;;;;;4.47;4.07;;;;;;;8.55;100.00;97371.31;5024328;28;20203;-57
2022/04/11 09:38:10;;;;;;;5.13;4.63;;;;;;;8.57;88.96;97360.56;5026944;28;20302;-58
2022/04/11 09:40:39;;;;;;;6.03;4.60;;;;;;;8.76;94.62;97362.03;5027795;28;20681;-58
2022/04/11 09:43:08;;;;;;;6.43;5.13;;;;;;;8.77;89.35;97363.66;5014029;28;20234;-56
2022/04/11 09:45:44;;;;;;;4.97;4.57;;;;;;;9.06;86.23;97352.53;4965015;28;20956;-54
2022/04/11 09:48:18;;;;;;;4.53;4.23;;;;;;;9.01;89.64;97359.31;5022854;28;20296;-55
2022/04/11 09:50:47;;;;;;;4.67;4.10;;;;;;;9.09;86.75;97361.94;5026849;28;20932;-55
2022/04/11 09:53:16;;;;;;;4.13;3.77;;;;;;;9.01;72.16;97356.69;5025162;28;20573;-56
2022/04/11 09:55:46;;;;;;;6.50;4.53;;;;;;;8.98;81.45;97357.84;5026449;28;20430;-54
2022/04/11 09:58:14;;;;;;;4.10;3.80;;;;;;;8.81;69.21;97355.25;5011969;28;20210;-54
2022/04/11 10:00:44;;;;;;;4.27;3.87;;;;;;;9.07;74.81;97351.53;4975138;28;20577;-55
2022/04/11 10:03:13;;;;;;;4.73;4.40;;;;;;;8.78;79.50;97352.09;5027918;28;20246;-56
2022/04/11 10:05:43;;;;;;;4.30;4.00;;;;;;;9.08;70.60;97347.88;5024763;28;21209;-59
2022/04/11 10:08:12;;;;;;;3.50;3.30;;;;;;;9.37;71.49;97340.38;5025210;28;20223;-53
2022/04/11 10:10:41;;;;;;;3.73;3.40;;;;;;;9.26;64.54;97333.63;5025574;28;20389;-56
2022/04/11 10:13:11;;;;;;;5.13;3.30;;;;;;;9.37;68.39;97333.25;5015234;28;20224;-53
2022/04/11 10:15:41;;;;;;;3.40;3.07;;;;;;;9.48;61.78;97329.38;5009916;28;20207;-55
2022/04/11 10:18:11;;;;;;;3.00;2.80;;;;;;;9.53;56.54;97329.69;4983694;28;20211;-56
2022/04/11 10:20:43;;;;;;;2.77;2.57;;;;;;;9.39;55.69;97327.78;5022806;28;20425;-58
2022/04/11 10:23:34;;;;;;;3.90;2.83;;;;;;;9.34;57.70;97335.41;5022727;28;20242;-58
2022/04/11 10:26:15;;;;;;;3.33;2.97;;;;;;;9.54;56.97;97327.88;5028365;28;20203;-56
2022/04/11 10:28:45;;;;;;;3.07;2.77;;;;;;;9.60;57.87;97321.06;5014455;28;20432;-57
2022/04/11 10:31:14;;;;;;;2.53;2.43;;;;;;;9.69;55.99;97314.75;5013381;28;20251;-54
2022/04/11 10:33:47;;;;;;;3.03;2.73;;;;;;;9.41;54.33;97313.38;4980077;28;20367;-55
2022/04/11 10:36:31;;;;;;;2.80;2.60;;;;;;;9.60;58.31;97302.53;5021525;28;20207;-55
2022/04/11 10:39:21;;;;;;;3.00;2.80;;;;;;;9.72;55.38;97298.50;5023346;28;20870;-53
2022/04/11 10:42:10;;;;;;;3.17;2.93;;;;;;;9.94;55.21;97301.31;5026291;28;20220;-59
2022/04/11 10:44:39;;;;;;;3.10;2.90;;;;;;;9.81;53.05;97309.84;5012215;28;20426;-59
2022/04/11 10:47:31;;;;;;;4.53;2.80;;;;;;;9.97;55.71;97308.91;5011774;28;20208;-58
2022/04/11 10:50:36;;;;;;;3.37;2.70;;;;;;;9.92;51.66;97304.16;4982249;28;20203;-56
2022/04/11 10:53:14;;;;;;;2.30;2.20;;;;;;;10.06;52.90;97299.09;5029483;28;20754;-58
2022/04/11 10:56:03;;;;;;;3.17;2.83;;;;;;;9.92;50.16;97292.72;5024529;28;20384;-56
2022/04/11 10:58:47;;;;;;;2.80;2.60;;;;;;;10.00;52.69;97295.31;5021739;28;21099;-59
2022/04/11 11:01:15;;;;;;;4.40;4.07;;;;;;;10.12;50.89;97272.72;5010123;28;20233;-55
2022/04/11 11:03:58;;;;;;;2.90;2.23;;;;;;;10.13;49.30;97277.03;4975798;28;20604;-60
2022/04/11 11:06:26;;;;;;;2.40;2.30;;;;;;;10.11;48.87;97273.72;5024664;28;20290;-55
2022/04/11 11:08:56;;;;;;;3.00;1.90;;;;;;;10.13;49.26;97269.09;5023483;28;20784;-58
2022/04/11 11:11:26;;;;;;;2.97;2.63;;;;;;;10.31;49.90;97243.28;5026299;28;20670;-58
2022/04/11 11:13:56;;;;;;;2.27;2.07;;;;;;;10.34;50.16;97264.09;5026372;28;20257;-59
2022/04/11 11:16:59;;;;;;;13.83;3.30;;;;;;;10.33;48.57;97244.72;5004490;28;20242;-57
2022/04/11 11:19:28;;;;;;;3.77;2.40;;;;;;;10.26;47.98;97246.44;4974202;28;20973;-56
2022/04/11 11:22:02;;;;;;;7.57;2.60;;;;;;;10.39;46.85;97246.63;5027458;28;22799;-59
2022/04/11 11:24:32;;;;;;;5.47;2.33;;;;;;;10.51;53.54;97246.25;5023640;28;20199;-56
2022/04/11 11:27:03;;;;;;;3.53;2.80;;;;;;;10.51;51.03;97236.47;5027346;28;20214;-58
2022/04/11 11:29:34;;;;;;;7.93;3.10;;;;;;;10.65;50.20;97244.59;5025528;28;20313;-59
2022/04/11 11:32:05;;;;;;;3.43;2.53;;;;;;;10.59;49.05;97238.19;5012872;28;20228;-57
2022/04/11 11:34:36;;;;;;;2.60;2.40;;;;;;;10.41;48.64;97236.72;5012030;28;20207;-56
2022/04/11 11:37:06;;;;;;;3.40;3.10;;;;;;;10.52;53.69;97238.09;4986598;28;20239;-59
2022/04/11 11:39:37;;;;;;;9.47;3.10;;;;;;;10.79;49.99;97232.34;5025928;28;20195;-61
2022/04/11 11:42:07;;;;;;;6.70;3.13;;;;;;;10.74;48.26;97224.94;5028134;28;20230;-60